Hlavní strana
METAR-TAF:

METAR-TAF

Letiště :

Daniel Field Airport

Augusta, Georgie, Spojené státy americké

zeměpisná šířka: 33-28-01N, zeměpisná délka: 082-02-19W, výška: 128 m

Aktuální stav počasí

Zpráva byla vytvořena před 1 hodinou a 34 minutami, v 15:53 UTC
Teplota
Tlak 1020 hPa

METAR: KDNL 151553Z AUTO A3011 RMK AO2 SLPNO PWINO FZRANO TSNO

Čas: 12:27 (17:27 UTC)

Předpověď počasí

Zpráva byla vytvořena před 1 hodinou a 42 minutami, v 15:45 UTC
Předpověď platná od 15 v 16 UTC do 16 v 12 UTC
Severoseverovýchodní vítr 9 kt
Viditelnost: 3.2 km
Zataženo ve výšce 700 ft
slabý déšť, kouřmo
Od 16 v 0000 UTC
Severoseverovýchodní vítr 9 kt s nárazy do 16 kt
Viditelnost: 9.7 km
Zataženo ve výšce 700 ft
slabý déšť, kouřmo

TAF: KDNL 151545Z 1516/1612 02009KT 2SM -RA BR OVC007 WS020/04040KT FM160000 02009G16KT 6SM -RA BR OVC007 WS020/03038KT

Stav a předpovědi počasí z více než 4 000 letišť (zprávy METAR a TAF).

Červené a žluté tečky na mapě představují dostupné meteorologické stanice.

Když kurzor umístíte na tečku, zobrazí se název stanice.

Pak kliknutím zobrazíte stav a předpověď počasí.

Chcete-li změnit mapu, kliknutím na zelené tlačítko se znaménkem +mapu přiblížíte, kliknutím na zelené tlačítko se znaménkem – mapu oddálíte a kliknutím na zelené šipky přejdete na sousední mapy.


METAR-TAF: